Lloc web orientat als practicants d'activitats
Centenari de l'SMC: 100 anys mirant el cel

Dades de l'estació automàtica Sant Martí Sarroca

?
?

Resum diari

22:00 TU
Dades diàries de l'estació meteorològica
Temperatura mitjana 10.6 °C
Temperatura màxima 16.6 °C 12:32 TU
Temperatura mínima 4.1 °C 4:48 TU
Humitat relativa mitjana 75%
Precipitació acumulada 0.0 mm
Ratxa màxima del vent (2 m) 20.5 km/h - 213º 12:15 TU
Irradiació solar global 20.0 MJ/m2

El tram horari està expressat en Temps Universal (TU). Cal sumar una hora en horari d'hivern i dues en horari d'estiu per passar a l'hora oficial.

Sant Martí Sarroca

Metadades estació meteorològica
Municipi Sant Martí Sarroca
Comarca Alt Penedès
Altitud 257 m
Data alta 24.05.1997
Estat actual Operativa
Dades de període
Període
TU
TM
°C
TX
°C
TN
°C
HRM
%
PPT
mm
VVM (2 m)
km/h
DVM (2 m)
graus
VVX (2 m)
km/h
RS
W/m2
00:00 - 00:30 5.6 5.8 5.5 84 0.0 5.0 353 11.9 0
00:30 - 01:00 5.8 5.9 5.7 83 0.0 5.4 337 11.5 0
01:00 - 01:30 5.7 5.9 5.5 83 0.0 4.7 355 11.5 0
01:30 - 02:00 5.6 5.8 5.5 83 0.0 4.0 355 9.7 0
02:00 - 02:30 5.5 5.8 5.3 82 0.0 5.4 335 11.9 0
02:30 - 03:00 5.4 5.7 5.0 81 0.0 3.2 32 10.8 0
03:00 - 03:30 4.6 5.1 4.1 87 0.0 1.4 337 4.3 0
03:30 - 04:00 4.4 4.6 4.1 88 0.0 3.2 335 9.0 0
04:00 - 04:30 4.2 4.3 4.1 87 0.0 4.7 1 9.4 0
04:30 - 05:00 4.3 4.4 4.1 86 0.0 6.1 338 13.0 0
05:00 - 05:30 4.4 4.5 4.3 86 0.0 5.0 354 10.1 3
05:30 - 06:00 5.0 5.2 4.5 84 0.0 6.1 329 12.2 40
06:00 - 06:30 6.2 7.1 5.2 81 0.0 5.4 334 11.5 135
06:30 - 07:00 8.1 9.1 7.2 77 0.0 2.9 346 7.2 211
07:00 - 07:30 9.7 10.4 9.2 74 0.0 3.6 47 9.0 255
07:30 - 08:00 10.1 10.4 9.5 74 0.0 5.4 43 11.5 293
08:00 - 08:30 10.9 11.6 10.3 72 0.0 4.3 32 9.4 371
08:30 - 09:00 12.5 13.4 11.7 68 0.0 4.3 158 10.4 643
09:00 - 09:30 13.2 13.7 12.8 65 0.0 4.3 154 10.8 679
09:30 - 10:00 14.3 15.2 13.2 61 0.0 5.0 194 11.9 806
10:00 - 10:30 14.3 14.8 13.8 60 0.0 4.0 151 14.8 373
10:30 - 11:00 15.0 15.9 13.5 58 0.0 5.8 170 19.8 716
11:00 - 11:30 15.8 16.4 15.2 55 0.0 6.5 195 18.4 991
11:30 - 12:00 15.5 16.0 15.0 53 0.0 6.8 190 15.5 889
12:00 - 12:30 16.0 16.5 15.5 51 0.0 6.5 187 20.5 949
12:30 - 13:00 16.0 16.6 15.2 52 0.0 7.2 209 19.1 879
13:00 - 13:30 15.6 16.4 15.1 55 0.0 5.8 194 16.9 677
13:30 - 14:00 15.1 15.8 14.6 60 0.0 6.1 201 18.0 512
14:00 - 14:30 14.3 14.8 13.8 64 0.0 6.5 213 18.4 330
14:30 - 15:00 13.4 13.7 13.1 69 0.0 5.8 215 18.7 227
15:00 - 15:30 13.6 13.9 13.3 70 0.0 5.8 213 18.0 341
15:30 - 16:00 13.9 15.0 13.5 70 0.0 6.8 224 15.5 348
16:00 - 16:30 14.0 14.8 13.4 69 0.0 5.0 198 17.3 231
16:30 - 17:00 13.5 13.6 13.2 73 0.0 3.6 213 13.0 139
17:00 - 17:30 13.0 13.2 12.6 77 0.0 2.5 189 8.6 58
17:30 - 18:00 12.6 12.8 12.5 81 0.0 3.2 201 11.2 44
18:00 - 18:30 12.3 12.5 12.2 83 0.0 2.9 215 9.0 6
18:30 - 19:00 12.1 12.4 11.9 85 0.0 3.2 207 13.0 0
19:00 - 19:30 11.8 12.0 11.7 87 0.0 2.5 205 9.0 0
19:30 - 20:00 11.6 11.7 11.4 90 0.0 1.8 226 7.2 0
20:00 - 20:30 11.3 11.4 11.2 88 0.0 1.4 251 4.0 0
20:30 - 21:00 10.8 11.2 10.6 87 0.0 0.4 30 2.9 0
21:00 - 21:30 10.5 10.6 10.4 88 0.0 0.4 335 2.2 0
21:30 - 22:00 10.2 10.5 10.0 87 0.0 1.1 146 5.0 0
22:00 - 22:30 10.2 10.5 10.0 86 0.0 1.1 222 2.5 0

Les dades en taronja només han passat un control de qualitat automàtic. Resta pendent la seva validació definitiva.